Station Historical Data
Daily Summary for May 17, 2017 Units:  Both    English   Metric
« Previous Day
Next Day »
Daily Weekly Monthly Yearly Custom
  High: Low: Average:
Temperature: 83.0 °F /  28.3 °C 59.8 °F /  15.4 °C 73.4 °F /  23 °C
Dew Point: 62.5 °F /  16.9 °C 52.9 °F /  11.6 °C 59.2 °F /  15.1 °C
Humidity: 78% 46% 62%
Wind Speed: 15.0mph /  24.1km/h - 5.1mph /  8.2km/h
Wind Gust: 29.0mph /  46.7km/h - -
Wind- - SW
Pressure: 29.90 in /  1012.4 hPa 29.78 in /  1008.4 hPa -
Precipitation: 0.00 in /  0 mm    
Historical Graphs
 
 
Tabular Data for May 17, 2017
Time Temperature Dew Point Pressure Wind Wind Speed Wind Gust Humidity Rainfall Rate (Hourly)
00:04 60.8 °F /  16 °C 53.5 °F /  11.9 °C 29.83in /  1010hPa Calm     77% 0.00in /  0mm
00:09 60.7 °F /  15.9 °C 53.4 °F /  11.9 °C 29.83in /  1010hPa Calm     77% 0.00in /  0mm
00:14 60.6 °F /  15.9 °C 53.3 °F /  11.8 °C 29.83in /  1010hPa Calm     77% 0.00in /  0mm
00:19 60.5 °F /  15.8 °C 53.3 °F /  11.8 °C 29.83in /  1010hPa Calm     77% 0.00in /  0mm
00:24 60.2 °F /  15.7 °C 53.3 °F /  11.8 °C 29.83in /  1010hPa Calm     78% 0.00in /  0mm
00:29 60.1 °F /  15.6 °C 53.2 °F /  11.8 °C 29.83in /  1010hPa Calm     78% 0.00in /  0mm
00:34 59.9 °F /  15.5 °C 53.0 °F /  11.7 °C 29.83in /  1010hPa Calm     78% 0.00in /  0mm
00:39 59.9 °F /  15.5 °C 53.0 °F /  11.7 °C 29.83in /  1010hPa Calm     78% 0.00in /  0mm
00:44 59.8 °F /  15.4 °C 52.9 °F /  11.6 °C 29.83in /  1010hPa Calm     78% 0.00in /  0mm
00:49 60.0 °F /  15.6 °C 53.1 °F /  11.7 °C 29.83in /  1010hPa Calm     78% 0.00in /  0mm
00:54 60.5 °F /  15.8 °C 53.6 °F /  12 °C 29.83in /  1010hPa Calm     78% 0.00in /  0mm
00:59 61.3 °F /  16.3 °C 54.0 °F /  12.2 °C 29.83in /  1010hPa Calm     77% 0.00in /  0mm
01:04 62.1 °F /  16.7 °C 54.4 °F /  12.4 °C 29.82in /  1009.7hPa Calm     76% 0.00in /  0mm
01:09 63.2 °F /  17.3 °C 55.1 °F /  12.8 °C 29.82in /  1009.7hPa Calm   4.0mph /  6.4km/h 75% 0.00in /  0mm
01:14 64.2 °F /  17.9 °C 55.7 °F /  13.2 °C 29.82in /  1009.7hPa SW 1.0mph /  1.6km/h 4.0mph /  6.4km/h 74% 0.00in /  0mm
01:19 65.5 °F /  18.6 °C 56.6 °F /  13.7 °C 29.82in /  1009.7hPa SW 2.0mph /  3.2km/h 4.0mph /  6.4km/h 73% 0.00in /  0mm
01:24 67.1 °F /  19.5 °C 57.8 °F /  14.3 °C 29.82in /  1009.7hPa WSW 3.0mph /  4.8km/h 5.0mph /  8km/h 72% 0.00in /  0mm
01:29 68.1 °F /  20.1 °C 57.9 °F /  14.4 °C 29.82in /  1009.7hPa SW 2.0mph /  3.2km/h 7.0mph /  11.3km/h 70% 0.00in /  0mm
01:34 68.9 °F /  20.5 °C 58.3 °F /  14.6 °C 29.82in /  1009.7hPa SW 3.0mph /  4.8km/h 7.0mph /  11.3km/h 69% 0.00in /  0mm
01:39 69.6 °F /  20.9 °C 58.2 °F /  14.6 °C 29.82in /  1009.7hPa SW 3.0mph /  4.8km/h 7.0mph /  11.3km/h 67% 0.00in /  0mm
01:44 69.5 °F /  20.8 °C 58.1 °F /  14.5 °C 29.82in /  1009.7hPa SSW 2.0mph /  3.2km/h 7.0mph /  11.3km/h 67% 0.00in /  0mm
01:49 69.8 °F /  21 °C 58.3 °F /  14.6 °C 29.82in /  1009.7hPa West 6.0mph /  9.7km/h 9.0mph /  14.5km/h 67% 0.00in /  0mm
01:54 70.2 °F /  21.2 °C 58.3 °F /  14.6 °C 29.82in /  1009.7hPa SW 2.0mph /  3.2km/h 6.0mph /  9.7km/h 66% 0.00in /  0mm
01:59 70.4 °F /  21.3 °C 58.5 °F /  14.7 °C 29.82in /  1009.7hPa SW 3.0mph /  4.8km/h 9.0mph /  14.5km/h 66% 0.00in /  0mm
02:04 70.6 °F /  21.4 °C 58.7 °F /  14.8 °C 29.83in /  1010hPa SW 3.0mph /  4.8km/h 9.0mph /  14.5km/h 66% 0.00in /  0mm
02:09 70.3 °F /  21.3 °C 58.4 °F /  14.7 °C 29.82in /  1009.7hPa South 5.0mph /  8km/h 7.0mph /  11.3km/h 66% 0.00in /  0mm
02:14 70.3 °F /  21.3 °C 58.4 °F /  14.7 °C 29.83in /  1010hPa SW 2.0mph /  3.2km/h 7.0mph /  11.3km/h 66% 0.00in /  0mm
02:19 70.0 °F /  21.1 °C 58.5 °F /  14.7 °C 29.82in /  1009.7hPa SW 2.0mph /  3.2km/h 6.0mph /  9.7km/h 67% 0.00in /  0mm
02:24 70.0 °F /  21.1 °C 58.5 °F /  14.7 °C 29.82in /  1009.7hPa SW 2.0mph /  3.2km/h 5.0mph /  8km/h 67% 0.00in /  0mm
02:29 70.1 °F /  21.2 °C 58.6 °F /  14.8 °C 29.82in /  1009.7hPa SW 2.0mph /  3.2km/h 5.0mph /  8km/h 67% 0.00in /  0mm
02:34 69.8 °F /  21 °C 58.3 °F /  14.6 °C 29.82in /  1009.7hPa Calm   3.0mph /  4.8km/h 67% 0.00in /  0mm
02:39 70.0 °F /  21.1 °C 58.5 °F /  14.7 °C 29.82in /  1009.7hPa WSW 3.0mph /  4.8km/h 6.0mph /  9.7km/h 67% 0.00in /  0mm
02:44 69.8 °F /  21 °C 58.8 °F /  14.9 °C 29.82in /  1009.7hPa WSW 2.0mph /  3.2km/h 6.0mph /  9.7km/h 68% 0.00in /  0mm
02:49 69.7 °F /  20.9 °C 58.7 °F /  14.8 °C 29.82in /  1009.7hPa Calm   7.0mph /  11.3km/h 68% 0.00in /  0mm
02:54 70.2 °F /  21.2 °C 59.1 °F /  15.1 °C 29.83in /  1010hPa SW 3.0mph /  4.8km/h 8.0mph /  12.9km/h 68% 0.00in /  0mm
02:59 70.5 °F /  21.4 °C 59.0 °F /  15 °C 29.83in /  1010hPa SW 3.0mph /  4.8km/h 9.0mph /  14.5km/h 67% 0.00in /  0mm
03:04 70.6 °F /  21.4 °C 59.1 °F /  15.1 °C 29.83in /  1010hPa SW 3.0mph /  4.8km/h 9.0mph /  14.5km/h 67% 0.00in /  0mm
03:09 70.7 °F /  21.5 °C 59.2 °F /  15.1 °C 29.82in /  1009.7hPa SW 4.0mph /  6.4km/h 8.0mph /  12.9km/h 67% 0.00in /  0mm
03:14 70.7 °F /  21.5 °C 59.2 °F /  15.1 °C 29.83in /  1010hPa SW 4.0mph /  6.4km/h 9.0mph /  14.5km/h 67% 0.00in /  0mm
03:19 70.8 °F /  21.6 °C 59.3 °F /  15.2 °C 29.83in /  1010hPa SW 4.0mph /  6.4km/h 7.0mph /  11.3km/h 67% 0.00in /  0mm
03:24 70.8 °F /  21.6 °C 59.3 °F /  15.2 °C 29.83in /  1010hPa WSW 4.0mph /  6.4km/h 9.0mph /  14.5km/h 67% 0.00in /  0mm
03:29 70.8 °F /  21.6 °C 59.3 °F /  15.2 °C 29.83in /  1010hPa South 7.0mph /  11.3km/h 7.0mph /  11.3km/h 67% 0.00in /  0mm
03:34 70.9 °F /  21.6 °C 59.4 °F /  15.2 °C 29.83in /  1010hPa SSW 4.0mph /  6.4km/h 10.0mph /  16.1km/h 67% 0.00in /  0mm
03:39 70.8 °F /  21.6 °C 59.3 °F /  15.2 °C 29.83in /  1010hPa SW 5.0mph /  8km/h 10.0mph /  16.1km/h 67% 0.00in /  0mm
03:44 70.6 °F /  21.4 °C 59.1 °F /  15.1 °C 29.83in /  1010hPa WSW 5.0mph /  8km/h 8.0mph /  12.9km/h 67% 0.00in /  0mm
03:49 70.4 °F /  21.3 °C 59.3 °F /  15.2 °C 29.83in /  1010hPa WSW 3.0mph /  4.8km/h 9.0mph /  14.5km/h 68% 0.00in /  0mm
03:54 69.9 °F /  21.1 °C 58.9 °F /  14.9 °C 29.83in /  1010hPa SW 4.0mph /  6.4km/h 9.0mph /  14.5km/h 68% 0.00in /  0mm
03:59 69.4 °F /  20.8 °C 58.8 °F /  14.9 °C 29.83in /  1010hPa SW 4.0mph /  6.4km/h 8.0mph /  12.9km/h 69% 0.00in /  0mm
04:04 68.7 °F /  20.4 °C 58.1 °F /  14.5 °C 29.83in /  1010hPa SSW 3.0mph /  4.8km/h 6.0mph /  9.7km/h 69% 0.00in /  0mm
04:09 68.1 °F /  20.1 °C 57.9 °F /  14.4 °C 29.83in /  1010hPa Calm   5.0mph /  8km/h 70% 0.00in /  0mm
04:14 67.6 °F /  19.8 °C 57.9 °F /  14.4 °C 29.83in /  1010hPa WSW 2.0mph /  3.2km/h 7.0mph /  11.3km/h 71% 0.00in /  0mm
04:19 67.3 °F /  19.6 °C 58.0 °F /  14.4 °C 29.83in /  1010hPa SW 3.0mph /  4.8km/h 7.0mph /  11.3km/h 72% 0.00in /  0mm
04:24 67.0 °F /  19.4 °C 57.7 °F /  14.3 °C 29.83in /  1010hPa SW 3.0mph /  4.8km/h 7.0mph /  11.3km/h 72% 0.00in /  0mm
04:29 66.8 °F /  19.3 °C 57.9 °F /  14.4 °C 29.83in /  1010hPa SW 3.0mph /  4.8km/h 7.0mph /  11.3km/h 73% 0.00in /  0mm
04:34 66.4 °F /  19.1 °C 57.9 °F /  14.4 °C 29.84in /  1010.4hPa WSW 2.0mph /  3.2km/h 6.0mph /  9.7km/h 74% 0.00in /  0mm
04:39 65.9 °F /  18.8 °C 57.4 °F /  14.1 °C 29.83in /  1010hPa WSW 2.0mph /  3.2km/h 5.0mph /  8km/h 74% 0.00in /  0mm
04:44 65.8 °F /  18.8 °C 57.3 °F /  14.1 °C 29.84in /  1010.4hPa SSW 4.0mph /  6.4km/h 5.0mph /  8km/h 74% 0.00in /  0mm
04:49 65.8 °F /  18.8 °C 57.7 °F /  14.3 °C 29.84in /  1010.4hPa WSW 3.0mph /  4.8km/h 6.0mph /  9.7km/h 75% 0.00in /  0mm
04:54 65.9 °F /  18.8 °C 57.7 °F /  14.3 °C 29.84in /  1010.4hPa WSW 4.0mph /  6.4km/h 8.0mph /  12.9km/h 75% 0.00in /  0mm
04:59 65.8 °F /  18.8 °C 57.7 °F /  14.3 °C 29.84in /  1010.4hPa WSW 2.0mph /  3.2km/h 5.0mph /  8km/h 75% 0.00in /  0mm
05:04 65.9 °F /  18.8 °C 57.7 °F /  14.3 °C 29.84in /  1010.4hPa SW 3.0mph /  4.8km/h 8.0mph /  12.9km/h 75% 0.00in /  0mm
05:09 66.0 °F /  18.9 °C 57.5 °F /  14.2 °C 29.84in /  1010.4hPa WSW 2.0mph /  3.2km/h 7.0mph /  11.3km/h 74% 0.00in /  0mm
05:14 66.2 °F /  19 °C 58.0 °F /  14.4 °C 29.85in /  1010.7hPa WSW 3.0mph /  4.8km/h 6.0mph /  9.7km/h 75% 0.00in /  0mm
05:19 66.4 °F /  19.1 °C 57.9 °F /  14.4 °C 29.85in /  1010.7hPa WSW 3.0mph /  4.8km/h 6.0mph /  9.7km/h 74% 0.00in /  0mm
05:24 66.4 °F /  19.1 °C 57.9 °F /  14.4 °C 29.85in /  1010.7hPa WSW 3.0mph /  4.8km/h 6.0mph /  9.7km/h 74% 0.00in /  0mm
05:29 66.5 °F /  19.2 °C 58.0 °F /  14.4 °C 29.85in /  1010.7hPa WSW 3.0mph /  4.8km/h 7.0mph /  11.3km/h 74% 0.00in /  0mm
05:34 66.7 °F /  19.3 °C 58.1 °F /  14.5 °C 29.85in /  1010.7hPa WSW 3.0mph /  4.8km/h 7.0mph /  11.3km/h 74% 0.00in /  0mm
05:39 67.0 °F /  19.4 °C 58.1 °F /  14.5 °C 29.85in /  1010.7hPa SW 2.0mph /  3.2km/h 8.0mph /  12.9km/h 73% 0.00in /  0mm
05:44 67.2 °F /  19.6 °C 58.2 °F /  14.6 °C 29.85in /  1010.7hPa WSW 4.0mph /  6.4km/h 9.0mph /  14.5km/h 73% 0.00in /  0mm
05:49 67.3 °F /  19.6 °C 58.0 °F /  14.4 °C 29.86in /  1011.1hPa WSW 4.0mph /  6.4km/h 10.0mph /  16.1km/h 72% 0.00in /  0mm
05:54 67.2 °F /  19.6 °C 58.2 °F /  14.6 °C 29.86in /  1011.1hPa WSW 2.0mph /  3.2km/h 6.0mph /  9.7km/h 73% 0.00in /  0mm
05:59 67.0 °F /  19.4 °C 58.1 °F /  14.5 °C 29.86in /  1011.1hPa WSW 2.0mph /  3.2km/h 6.0mph /  9.7km/h 73% 0.00in /  0mm
06:04 66.8 °F /  19.3 °C 57.9 °F /  14.4 °C 29.86in /  1011.1hPa WSW 2.0mph /  3.2km/h 8.0mph /  12.9km/h 73% 0.00in /  0mm
06:09 66.6 °F /  19.2 °C 58.1 °F /  14.5 °C 29.87in /  1011.4hPa WSW 3.0mph /  4.8km/h 7.0mph /  11.3km/h 74% 0.00in /  0mm
06:14 66.8 °F /  19.3 °C 57.9 °F /  14.4 °C 29.87in /  1011.4hPa WSW 3.0mph /  4.8km/h 7.0mph /  11.3km/h 73% 0.00in /  0mm
06:19 67.0 °F /  19.4 °C 58.4 °F /  14.7 °C 29.87in /  1011.4hPa WSW 3.0mph /  4.8km/h 6.0mph /  9.7km/h 74% 0.00in /  0mm
06:24 67.4 °F /  19.7 °C 58.4 °F /  14.7 °C 29.87in /  1011.4hPa WSW 3.0mph /  4.8km/h 8.0mph /  12.9km/h 73% 0.00in /  0mm
06:29 67.7 °F /  19.8 °C 58.7 °F /  14.8 °C 29.87in /  1011.4hPa WSW 3.0mph /  4.8km/h 8.0mph /  12.9km/h 73% 0.00in /  0mm
06:34 67.8 °F /  19.9 °C 58.4 °F /  14.7 °C 29.87in /  1011.4hPa WSW 3.0mph /  4.8km/h 8.0mph /  12.9km/h 72% 0.00in /  0mm
06:39 68.1 °F /  20.1 °C 58.7 °F /  14.8 °C 29.87in /  1011.4hPa WSW 5.0mph /  8km/h 7.0mph /  11.3km/h 72% 0.00in /  0mm
06:44 68.3 °F /  20.2 °C 58.9 °F /  14.9 °C 29.87in /  1011.4hPa SW 5.0mph /  8km/h 8.0mph /  12.9km/h 72% 0.00in /  0mm
06:49 69.0 °F /  20.6 °C 59.2 °F /  15.1 °C 29.87in /  1011.4hPa WSW 3.0mph /  4.8km/h 9.0mph /  14.5km/h 71% 0.00in /  0mm
06:54 69.6 °F /  20.9 °C 59.4 °F /  15.2 °C 29.87in /  1011.4hPa WSW 7.0mph /  11.3km/h 13.0mph /  20.9km/h 70% 0.00in /  0mm
06:59 69.8 °F /  21 °C 59.6 °F /  15.3 °C 29.87in /  1011.4hPa SW 4.0mph /  6.4km/h 8.0mph /  12.9km/h 70% 0.00in /  0mm
07:04 70.4 °F /  21.3 °C 59.7 °F /  15.4 °C 29.87in /  1011.4hPa West 3.0mph /  4.8km/h 11.0mph /  17.7km/h 69% 0.00in /  0mm
07:09 70.7 °F /  21.5 °C 59.6 °F /  15.3 °C 29.87in /  1011.4hPa South 4.0mph /  6.4km/h 12.0mph /  19.3km/h 68% 0.00in /  0mm
07:14 70.9 °F /  21.6 °C 59.8 °F /  15.4 °C 29.88in /  1011.7hPa SW 5.0mph /  8km/h 12.0mph /  19.3km/h 68% 0.00in /  0mm
07:19 71.1 °F /  21.7 °C 60.0 °F /  15.6 °C 29.88in /  1011.7hPa WSW 5.0mph /  8km/h 12.0mph /  19.3km/h 68% 0.00in /  0mm
07:24 71.4 °F /  21.9 °C 59.9 °F /  15.5 °C 29.88in /  1011.7hPa WSW 5.0mph /  8km/h 12.0mph /  19.3km/h 67% 0.00in /  0mm
07:29 71.8 °F /  22.1 °C 59.8 °F /  15.4 °C 29.88in /  1011.7hPa SW 5.0mph /  8km/h 10.0mph /  16.1km/h 66% 0.00in /  0mm
07:34 72.2 °F /  22.3 °C 60.2 °F /  15.7 °C 29.88in /  1011.7hPa SW 11.0mph /  17.7km/h 13.0mph /  20.9km/h 66% 0.00in /  0mm
07:39 72.7 °F /  22.6 °C 60.3 °F /  15.7 °C 29.89in /  1012.1hPa SW 5.0mph /  8km/h 13.0mph /  20.9km/h 65% 0.00in /  0mm
07:44 73.0 °F /  22.8 °C 60.1 °F /  15.6 °C 29.89in /  1012.1hPa SW 6.0mph /  9.7km/h 13.0mph /  20.9km/h 64% 0.00in /  0mm
07:49 73.1 °F /  22.8 °C 60.2 °F /  15.7 °C 29.89in /  1012.1hPa SW 5.0mph /  8km/h 13.0mph /  20.9km/h 64% 0.00in /  0mm
07:54 73.5 °F /  23.1 °C 60.6 °F /  15.9 °C 29.89in /  1012.1hPa SW 5.0mph /  8km/h 13.0mph /  20.9km/h 64% 0.00in /  0mm
07:59 73.8 °F /  23.2 °C 60.4 °F /  15.8 °C 29.89in /  1012.1hPa East 3.0mph /  4.8km/h 15.0mph /  24.1km/h 63% 0.00in /  0mm
08:04 74.1 °F /  23.4 °C 60.7 °F /  15.9 °C 29.89in /  1012.1hPa South 7.0mph /  11.3km/h 16.0mph /  25.7km/h 63% 0.00in /  0mm
08:09 74.2 °F /  23.4 °C 60.8 °F /  16 °C 29.89in /  1012.1hPa SW 12.0mph /  19.3km/h 13.0mph /  20.9km/h 63% 0.00in /  0mm
08:14 74.5 °F /  23.6 °C 60.6 °F /  15.9 °C 29.88in /  1011.7hPa WSW 7.0mph /  11.3km/h 14.0mph /  22.5km/h 62% 0.00in /  0mm
08:19 74.7 °F /  23.7 °C 60.4 °F /  15.8 °C 29.88in /  1011.7hPa SW 3.0mph /  4.8km/h 21.0mph /  33.8km/h 61% 0.00in /  0mm
08:24 74.7 °F /  23.7 °C 60.8 °F /  16 °C 29.89in /  1012.1hPa SW 7.0mph /  11.3km/h 13.0mph /  20.9km/h 62% 0.00in /  0mm
08:29 74.8 °F /  23.8 °C 60.4 °F /  15.8 °C 29.89in /  1012.1hPa SSW 7.0mph /  11.3km/h 17.0mph /  27.4km/h 61% 0.00in /  0mm
08:34 75.0 °F /  23.9 °C 60.6 °F /  15.9 °C 29.89in /  1012.1hPa SW 7.0mph /  11.3km/h 17.0mph /  27.4km/h 61% 0.00in /  0mm
08:39 74.9 °F /  23.8 °C 60.5 °F /  15.8 °C 29.89in /  1012.1hPa SW 7.0mph /  11.3km/h 16.0mph /  25.7km/h 61% 0.00in /  0mm
08:44 75.1 °F /  23.9 °C 61.2 °F /  16.2 °C 29.89in /  1012.1hPa WSW 7.0mph /  11.3km/h 13.0mph /  20.9km/h 62% 0.00in /  0mm
08:49 74.9 °F /  23.8 °C 60.5 °F /  15.8 °C 29.90in /  1012.4hPa SW 6.0mph /  9.7km/h 20.0mph /  32.2km/h 61% 0.00in /  0mm
08:54 74.9 °F /  23.8 °C 60.5 °F /  15.8 °C 29.89in /  1012.1hPa WSW 7.0mph /  11.3km/h 17.0mph /  27.4km/h 61% 0.00in /  0mm
08:59 75.3 °F /  24.1 °C 60.5 °F /  15.8 °C 29.90in /  1012.4hPa West 13.0mph /  20.9km/h 18.0mph /  29km/h 60% 0.00in /  0mm
09:04 75.6 °F /  24.2 °C 60.3 °F /  15.7 °C 29.90in /  1012.4hPa WSW 10.0mph /  16.1km/h 21.0mph /  33.8km/h 59% 0.00in /  0mm
09:09 75.8 °F /  24.3 °C 60.9 °F /  16.1 °C 29.90in /  1012.4hPa WSW 9.0mph /  14.5km/h 22.0mph /  35.4km/h 60% 0.00in /  0mm
09:14 76.0 °F /  24.4 °C 61.1 °F /  16.2 °C 29.90in /  1012.4hPa WSW 8.0mph /  12.9km/h 22.0mph /  35.4km/h 60% 0.00in /  0mm
09:19 76.3 °F /  24.6 °C 59.9 °F /  15.5 °C 29.90in /  1012.4hPa WSW 8.0mph /  12.9km/h 16.0mph /  25.7km/h 57% 0.00in /  0mm
09:24 76.6 °F /  24.8 °C 61.2 °F /  16.2 °C 29.90in /  1012.4hPa WSW 11.0mph /  17.7km/h 18.0mph /  29km/h 59% 0.00in /  0mm
09:29 76.7 °F /  24.8 °C 60.3 °F /  15.7 °C 29.90in /  1012.4hPa South 13.0mph /  20.9km/h 19.0mph /  30.6km/h 57% 0.00in /  0mm
09:34 76.7 °F /  24.8 °C 60.8 °F /  16 °C 29.90in /  1012.4hPa SW 10.0mph /  16.1km/h 22.0mph /  35.4km/h 58% 0.00in /  0mm
09:39 77.0 °F /  25 °C 60.6 °F /  15.9 °C 29.90in /  1012.4hPa SW 10.0mph /  16.1km/h 23.0mph /  37km/h 57% 0.00in /  0mm
09:44 77.0 °F /  25 °C 61.1 °F /  16.2 °C 29.90in /  1012.4hPa WSW 4.0mph /  6.4km/h 20.0mph /  32.2km/h 58% 0.00in /  0mm
09:49 76.6 °F /  24.8 °C 60.2 °F /  15.7 °C 29.90in /  1012.4hPa SSW 11.0mph /  17.7km/h 17.0mph /  27.4km/h 57% 0.00in /  0mm
09:55 77.0 °F /  25 °C 61.1 °F /  16.2 °C 29.89in /  1012.1hPa SW 10.0mph /  16.1km/h 23.0mph /  37km/h 58% 0.00in /  0mm
10:00 77.2 °F /  25.1 °C 61.3 °F /  16.3 °C 29.89in /  1012.1hPa SW 10.0mph /  16.1km/h 23.0mph /  37km/h 58% 0.00in /  0mm
10:05 77.3 °F /  25.2 °C 60.9 °F /  16.1 °C 29.89in /  1012.1hPa WSW 9.0mph /  14.5km/h 18.0mph /  29km/h 57% 0.00in /  0mm
10:10 77.5 °F /  25.3 °C 61.6 °F /  16.4 °C 29.89in /  1012.1hPa WSW 8.0mph /  12.9km/h 15.0mph /  24.1km/h 58% 0.00in /  0mm
10:15 77.8 °F /  25.4 °C 60.8 °F /  16 °C 29.89in /  1012.1hPa WSW 8.0mph /  12.9km/h 15.0mph /  24.1km/h 56% 0.00in /  0mm
10:20 78.0 °F /  25.6 °C 61.5 °F /  16.4 °C 29.88in /  1011.7hPa SW 9.0mph /  14.5km/h 20.0mph /  32.2km/h 57% 0.00in /  0mm
10:25 78.3 °F /  25.7 °C 61.8 °F /  16.6 °C 29.88in /  1011.7hPa WSW 5.0mph /  8km/h 16.0mph /  25.7km/h 57% 0.00in /  0mm
10:30 78.4 °F /  25.8 °C 61.4 °F /  16.3 °C 29.88in /  1011.7hPa West 9.0mph /  14.5km/h 21.0mph /  33.8km/h 56% 0.00in /  0mm
10:35 78.5 °F /  25.8 °C 62.0 °F /  16.7 °C 29.88in /  1011.7hPa West 5.0mph /  8km/h 16.0mph /  25.7km/h 57% 0.00in /  0mm
10:40 78.8 °F /  26 °C 61.3 °F /  16.3 °C 29.88in /  1011.7hPa West 6.0mph /  9.7km/h 16.0mph /  25.7km/h 55% 0.00in /  0mm
10:45 78.6 °F /  25.9 °C 61.6 °F /  16.4 °C 29.88in /  1011.7hPa SW 4.0mph /  6.4km/h 22.0mph /  35.4km/h 56% 0.00in /  0mm
10:50 79.0 °F /  26.1 °C 62.5 °F /  16.9 °C 29.88in /  1011.7hPa WSW 8.0mph /  12.9km/h 22.0mph /  35.4km/h 57% 0.00in /  0mm
10:55 79.0 °F /  26.1 °C 61.5 °F /  16.4 °C 29.88in /  1011.7hPa WSW 7.0mph /  11.3km/h 13.0mph /  20.9km/h 55% 0.00in /  0mm
11:00 78.8 °F /  26 °C 61.8 °F /  16.6 °C 29.88in /  1011.7hPa WSW 8.0mph /  12.9km/h 16.0mph /  25.7km/h 56% 0.00in /  0mm
11:05 78.4 °F /  25.8 °C 61.4 °F /  16.3 °C 29.88in /  1011.7hPa WSW 10.0mph /  16.1km/h 27.0mph /  43.5km/h 56% 0.00in /  0mm
11:10 78.4 °F /  25.8 °C 61.4 °F /  16.3 °C 29.88in /  1011.7hPa WSW 10.0mph /  16.1km/h 23.0mph /  37km/h 56% 0.00in /  0mm
11:15 78.7 °F /  25.9 °C 61.7 °F /  16.5 °C 29.88in /  1011.7hPa SW 8.0mph /  12.9km/h 21.0mph /  33.8km/h 56% 0.00in /  0mm
11:20 79.1 °F /  26.2 °C 61.5 °F /  16.4 °C 29.88in /  1011.7hPa WSW 8.0mph /  12.9km/h 18.0mph /  29km/h 55% 0.00in /  0mm
11:25 79.6 °F /  26.4 °C 62.0 °F /  16.7 °C 29.88in /  1011.7hPa SW 10.0mph /  16.1km/h 18.0mph /  29km/h 55% 0.00in /  0mm
11:30 80.1 °F /  26.7 °C 62.5 °F /  16.9 °C 29.88in /  1011.7hPa WSW 9.0mph /  14.5km/h 16.0mph /  25.7km/h 55% 0.00in /  0mm
11:35 79.6 °F /  26.4 °C 61.5 °F /  16.4 °C 29.88in /  1011.7hPa WSW 10.0mph /  16.1km/h 21.0mph /  33.8km/h 54% 0.00in /  0mm
11:40 79.4 °F /  26.3 °C 61.3 °F /  16.3 °C 29.88in /  1011.7hPa WSW 9.0mph /  14.5km/h 23.0mph /  37km/h 54% 0.00in /  0mm
11:45 79.3 °F /  26.3 °C 61.7 °F /  16.5 °C 29.89in /  1012.1hPa SW 11.0mph /  17.7km/h 27.0mph /  43.5km/h 55% 0.00in /  0mm
11:50 78.4 °F /  25.8 °C 60.9 °F /  16.1 °C 29.89in /  1012.1hPa WSW 11.0mph /  17.7km/h 29.0mph /  46.7km/h 55% 0.00in /  0mm
11:55 78.1 °F /  25.6 °C 61.1 °F /  16.2 °C 29.89in /  1012.1hPa West 10.0mph /  16.1km/h 22.0mph /  35.4km/h 56% 0.00in /  0mm
12:00 78.1 °F /  25.6 °C 61.1 °F /  16.2 °C 29.88in /  1011.7hPa WSW 11.0mph /  17.7km/h 21.0mph /  33.8km/h 56% 0.00in /  0mm
12:05 78.7 °F /  25.9 °C 61.7 °F /  16.5 °C 29.88in /  1011.7hPa WNW 7.0mph /  11.3km/h 19.0mph /  30.6km/h 56% 0.00in /  0mm
12:10 79.8 °F /  26.6 °C 62.2 °F /  16.8 °C 29.88in /  1011.7hPa West 7.0mph /  11.3km/h 15.0mph /  24.1km/h 55% 0.00in /  0mm
12:15 80.0 °F /  26.7 °C 62.4 °F /  16.9 °C 29.88in /  1011.7hPa SW 6.0mph /  9.7km/h 18.0mph /  29km/h 55% 0.00in /  0mm
12:20 80.2 °F /  26.8 °C 62.0 °F /  16.7 °C 29.88in /  1011.7hPa SW 9.0mph /  14.5km/h 21.0mph /  33.8km/h 54% 0.00in /  0mm
12:25 80.2 °F /  26.8 °C 62.0 °F /  16.7 °C 29.87in /  1011.4hPa SW 10.0mph /  16.1km/h 21.0mph /  33.8km/h 54% 0.00in /  0mm
12:30 80.4 °F /  26.9 °C 61.7 °F /  16.5 °C 29.87in /  1011.4hPa SW 11.0mph /  17.7km/h 20.0mph /  32.2km/h 53% 0.00in /  0mm
12:35 80.6 °F /  27 °C 61.9 °F /  16.6 °C 29.88in /  1011.7hPa SW 12.0mph /  19.3km/h 25.0mph /  40.2km/h 53% 0.00in /  0mm
12:40 80.0 °F /  26.7 °C 61.3 °F /  16.3 °C 29.87in /  1011.4hPa WSW 13.0mph /  20.9km/h 25.0mph /  40.2km/h 53% 0.00in /  0mm
12:45 79.3 °F /  26.3 °C 61.2 °F /  16.2 °C 29.88in /  1011.7hPa WSW 15.0mph /  24.1km/h 25.0mph /  40.2km/h 54% 0.00in /  0mm
12:50 79.6 °F /  26.4 °C 61.5 °F /  16.4 °C 29.87in /  1011.4hPa WSW 12.0mph /  19.3km/h 25.0mph /  40.2km/h 54% 0.00in /  0mm
12:55 79.3 °F /  26.3 °C 60.7 °F /  15.9 °C 29.87in /  1011.4hPa WSW 4.0mph /  6.4km/h 21.0mph /  33.8km/h 53% 0.00in /  0mm
13:00 79.2 °F /  26.2 °C 61.1 °F /  16.2 °C 29.87in /  1011.4hPa WSW 10.0mph /  16.1km/h 24.0mph /  38.6km/h 54% 0.00in /  0mm
13:05 79.1 °F /  26.2 °C 61.0 °F /  16.1 °C 29.87in /  1011.4hPa WSW 12.0mph /  19.3km/h 19.0mph /  30.6km/h 54% 0.00in /  0mm
13:10 79.3 °F /  26.3 °C 61.7 °F /  16.5 °C 29.87in /  1011.4hPa WSW 15.0mph /  24.1km/h 20.0mph /  32.2km/h 55% 0.00in /  0mm
13:15 79.4 °F /  26.3 °C 61.3 °F /  16.3 °C 29.87in /  1011.4hPa WSW 11.0mph /  17.7km/h 23.0mph /  37km/h 54% 0.00in /  0mm
13:20 79.3 °F /  26.3 °C 61.2 °F /  16.2 °C 29.87in /  1011.4hPa WSW 10.0mph /  16.1km/h 23.0mph /  37km/h 54% 0.00in /  0mm
13:25 79.4 °F /  26.3 °C 60.8 °F /  16 °C 29.86in /  1011.1hPa WSW 10.0mph /  16.1km/h 20.0mph /  32.2km/h 53% 0.00in /  0mm
13:30 79.3 °F /  26.3 °C 60.7 °F /  15.9 °C 29.86in /  1011.1hPa WSW 11.0mph /  17.7km/h 22.0mph /  35.4km/h 53% 0.00in /  0mm
13:35 79.3 °F /  26.3 °C 61.2 °F /  16.2 °C 29.86in /  1011.1hPa WSW 11.0mph /  17.7km/h 20.0mph /  32.2km/h 54% 0.00in /  0mm
13:40 79.3 °F /  26.3 °C 60.7 °F /  15.9 °C 29.86in /  1011.1hPa WSW 14.0mph /  22.5km/h 19.0mph /  30.6km/h 53% 0.00in /  0mm
13:45 78.9 °F /  26.1 °C 60.3 °F /  15.7 °C 29.86in /  1011.1hPa WNW 10.0mph /  16.1km/h 23.0mph /  37km/h 53% 0.00in /  0mm
13:50 78.7 °F /  25.9 °C 60.1 °F /  15.6 °C 29.86in /  1011.1hPa WSW 11.0mph /  17.7km/h 23.0mph /  37km/h 53% 0.00in /  0mm
13:55 79.9 °F /  26.6 °C 62.3 °F /  16.8 °C 29.86in /  1011.1hPa WSW 11.0mph /  17.7km/h 21.0mph /  33.8km/h 55% 0.00in /  0mm
14:00 80.2 °F /  26.8 °C 61.5 °F /  16.4 °C 29.85in /  1010.7hPa NNW 6.0mph /  9.7km/h 19.0mph /  30.6km/h 53% 0.00in /  0mm
14:05 80.5 °F /  26.9 °C 61.3 °F /  16.3 °C 29.85in /  1010.7hPa SW 12.0mph /  19.3km/h 21.0mph /  33.8km/h 52% 0.00in /  0mm
14:10 81.1 °F /  27.3 °C 61.8 °F /  16.6 °C 29.85in /  1010.7hPa WSW 9.0mph /  14.5km/h 18.0mph /  29km/h 52% 0.00in /  0mm
14:15 81.7 °F /  27.6 °C 61.2 °F /  16.2 °C 29.85in /  1010.7hPa WSW 10.0mph /  16.1km/h 22.0mph /  35.4km/h 50% 0.00in /  0mm
14:20 81.9 °F /  27.7 °C 61.4 °F /  16.3 °C 29.85in /  1010.7hPa WSW 13.0mph /  20.9km/h 21.0mph /  33.8km/h 50% 0.00in /  0mm
14:25 82.2 °F /  27.9 °C 61.7 °F /  16.5 °C 29.85in /  1010.7hPa WSW 11.0mph /  17.7km/h 19.0mph /  30.6km/h 50% 0.00in /  0mm
14:30 82.4 °F /  28 °C 61.9 °F /  16.6 °C 29.85in /  1010.7hPa SSW 12.0mph /  19.3km/h 21.0mph /  33.8km/h 50% 0.00in /  0mm
14:35 82.5 °F /  28.1 °C 61.4 °F /  16.3 °C 29.85in /  1010.7hPa West 8.0mph /  12.9km/h 19.0mph /  30.6km/h 49% 0.00in /  0mm
14:40 83.0 °F /  28.3 °C 60.7 °F /  15.9 °C 29.85in /  1010.7hPa WSW 10.0mph /  16.1km/h 21.0mph /  33.8km/h 47% 0.00in /  0mm
14:45 82.3 °F /  27.9 °C 59.4 °F /  15.2 °C 29.85in /  1010.7hPa WSW 11.0mph /  17.7km/h 27.0mph /  43.5km/h 46% 0.00in /  0mm
14:50 81.8 °F /  27.7 °C 60.8 °F /  16 °C 29.85in /  1010.7hPa WSW 11.0mph /  17.7km/h 27.0mph /  43.5km/h 49% 0.00in /  0mm
14:55 81.7 °F /  27.6 °C 60.7 °F /  15.9 °C 29.85in /  1010.7hPa WSW 10.0mph /  16.1km/h 22.0mph /  35.4km/h 49% 0.00in /  0mm
15:00 81.8 °F /  27.7 °C 60.8 °F /  16 °C 29.85in /  1010.7hPa WSW 10.0mph /  16.1km/h 22.0mph /  35.4km/h 49% 0.00in /  0mm
15:05 81.8 °F /  27.7 °C 60.2 °F /  15.7 °C 29.84in /  1010.4hPa WSW 6.0mph /  9.7km/h 21.0mph /  33.8km/h 48% 0.00in /  0mm
15:10 81.9 °F /  27.7 °C 59.7 °F /  15.4 °C 29.84in /  1010.4hPa WSW 13.0mph /  20.9km/h 22.0mph /  35.4km/h 47% 0.00in /  0mm
15:15 81.7 °F /  27.6 °C 59.5 °F /  15.3 °C 29.84in /  1010.4hPa WSW 10.0mph /  16.1km/h 22.0mph /  35.4km/h 47% 0.00in /  0mm
15:20 82.0 °F /  27.8 °C 60.4 °F /  15.8 °C 29.84in /  1010.4hPa WSW 9.0mph /  14.5km/h 20.0mph /  32.2km/h 48% 0.00in /  0mm
15:25 81.1 °F /  27.3 °C 59.6 °F /  15.3 °C 29.84in /  1010.4hPa SW 10.0mph /  16.1km/h 20.0mph /  32.2km/h 48% 0.00in /  0mm
15:30 80.5 °F /  26.9 °C 59.0 °F /  15 °C 29.84in /  1010.4hPa SW 13.0mph /  20.9km/h 18.0mph /  29km/h 48% 0.00in /  0mm
15:35 80.4 °F /  26.9 °C 59.5 °F /  15.3 °C 29.84in /  1010.4hPa SSW 11.0mph /  17.7km/h 16.0mph /  25.7km/h 49% 0.00in /  0mm
15:40 80.6 °F /  27 °C 59.7 °F /  15.4 °C 29.84in /  1010.4hPa WSW 9.0mph /  14.5km/h 20.0mph /  32.2km/h 49% 0.00in /  0mm
15:45 81.0 °F /  27.2 °C 60.6 °F /  15.9 °C 29.84in /  1010.4hPa WSW 9.0mph /  14.5km/h 20.0mph /  32.2km/h 50% 0.00in /  0mm
15:50 81.4 °F /  27.4 °C 59.8 °F /  15.4 °C 29.84in /  1010.4hPa West 5.0mph /  8km/h 18.0mph /  29km/h 48% 0.00in /  0mm
15:55 80.9 °F /  27.2 °C 59.9 °F /  15.5 °C 29.84in /  1010.4hPa West 7.0mph /  11.3km/h 23.0mph /  37km/h 49% 0.00in /  0mm
16:00 80.8 °F /  27.1 °C 59.3 °F /  15.2 °C 29.84in /  1010.4hPa WNW 6.0mph /  9.7km/h 19.0mph /  30.6km/h 48% 0.00in /  0mm
16:05 80.8 °F /  27.1 °C 60.4 °F /  15.8 °C 29.84in /  1010.4hPa WSW 8.0mph /  12.9km/h 19.0mph /  30.6km/h 50% 0.00in /  0mm
16:10 81.3 °F /  27.4 °C 60.3 °F /  15.7 °C 29.84in /  1010.4hPa WSW 8.0mph /  12.9km/h 17.0mph /  27.4km/h 49% 0.00in /  0mm
16:15 81.3 °F /  27.4 °C 60.9 °F /  16.1 °C 29.84in /  1010.4hPa WNW 6.0mph /  9.7km/h 17.0mph /  27.4km/h 50% 0.00in /  0mm
16:20 81.1 °F /  27.3 °C 60.1 °F /  15.6 °C 29.84in /  1010.4hPa WSW 8.0mph /  12.9km/h 17.0mph /  27.4km/h 49% 0.00in /  0mm
16:25 81.3 °F /  27.4 °C 60.3 °F /  15.7 °C 29.83in /  1010hPa WSW 9.0mph /  14.5km/h 16.0mph /  25.7km/h 49% 0.00in /  0mm
16:30 81.6 °F /  27.6 °C 60.6 °F /  15.9 °C 29.84in /  1010.4hPa WSW 8.0mph /  12.9km/h 19.0mph /  30.6km/h 49% 0.00in /  0mm
16:35 81.8 °F /  27.7 °C 60.8 °F /  16 °C 29.83in /  1010hPa WSW 13.0mph /  20.9km/h 20.0mph /  32.2km/h 49% 0.00in /  0mm
16:40 81.6 °F /  27.6 °C 60.0 °F /  15.6 °C 29.83in /  1010hPa WSW 6.0mph /  9.7km/h 20.0mph /  32.2km/h 48% 0.00in /  0mm
16:45 81.4 °F /  27.4 °C 59.8 °F /  15.4 °C 29.83in /  1010hPa West 5.0mph /  8km/h 13.0mph /  20.9km/h 48% 0.00in /  0mm
16:50 81.4 °F /  27.4 °C 59.2 °F /  15.1 °C 29.83in /  1010hPa SW 9.0mph /  14.5km/h 18.0mph /  29km/h 47% 0.00in /  0mm
16:55 81.3 °F /  27.4 °C 59.1 °F /  15.1 °C 29.83in /  1010hPa SW 10.0mph /  16.1km/h 21.0mph /  33.8km/h 47% 0.00in /  0mm
17:00 81.5 °F /  27.5 °C 59.9 °F /  15.5 °C 29.83in /  1010hPa WSW 3.0mph /  4.8km/h 14.0mph /  22.5km/h 48% 0.00in /  0mm
17:05 81.5 °F /  27.5 °C 60.5 °F /  15.8 °C 29.83in /  1010hPa WSW 7.0mph /  11.3km/h 15.0mph /  24.1km/h 49% 0.00in /  0mm
17:10 81.5 °F /  27.5 °C 59.9 °F /  15.5 °C 29.83in /  1010hPa WSW 8.0mph /  12.9km/h 17.0mph /  27.4km/h 48% 0.00in /  0mm
17:15 81.3 °F /  27.4 °C 59.7 °F /  15.4 °C 29.83in /  1010hPa WSW 8.0mph /  12.9km/h 17.0mph /  27.4km/h 48% 0.00in /  0mm
17:20 81.4 °F /  27.4 °C 60.4 °F /  15.8 °C 29.83in /  1010hPa WSW 7.0mph /  11.3km/h 15.0mph /  24.1km/h 49% 0.00in /  0mm
17:25 81.8 °F /  27.7 °C 60.8 °F /  16 °C 29.83in /  1010hPa West 7.0mph /  11.3km/h 11.0mph /  17.7km/h 49% 0.00in /  0mm
17:30 82.0 °F /  27.8 °C 60.4 °F /  15.8 °C 29.83in /  1010hPa SW 6.0mph /  9.7km/h 13.0mph /  20.9km/h 48% 0.00in /  0mm
17:35 82.0 °F /  27.8 °C 60.4 °F /  15.8 °C 29.83in /  1010hPa WSW 7.0mph /  11.3km/h 13.0mph /  20.9km/h 48% 0.00in /  0mm
17:40 81.5 °F /  27.5 °C 59.9 °F /  15.5 °C 29.83in /  1010hPa WSW 4.0mph /  6.4km/h 11.0mph /  17.7km/h 48% 0.00in /  0mm
17:45 80.9 °F /  27.2 °C 59.9 °F /  15.5 °C 29.83in /  1010hPa SW 5.0mph /  8km/h 10.0mph /  16.1km/h 49% 0.00in /  0mm
17:50 80.4 °F /  26.9 °C 59.5 °F /  15.3 °C 29.83in /  1010hPa SW 4.0mph /  6.4km/h 12.0mph /  19.3km/h 49% 0.00in /  0mm
17:55 79.8 °F /  26.6 °C 59.5 °F /  15.3 °C 29.83in /  1010hPa WSW 8.0mph /  12.9km/h 11.0mph /  17.7km/h 50% 0.00in /  0mm
18:00 79.8 °F /  26.6 °C 59.5 °F /  15.3 °C 29.83in /  1010hPa WSW 5.0mph /  8km/h 11.0mph /  17.7km/h 50% 0.00in /  0mm
18:05 79.8 °F /  26.6 °C 60.1 °F /  15.6 °C 29.82in /  1009.7hPa WSW 5.0mph /  8km/h 10.0mph /  16.1km/h 51% 0.00in /  0mm
18:10 79.6 °F /  26.4 °C 60.4 °F /  15.8 °C 29.83in /  1010hPa SW 5.0mph /  8km/h 10.0mph /  16.1km/h 52% 0.00in /  0mm
18:15 79.6 °F /  26.4 °C 59.9 °F /  15.5 °C 29.83in /  1010hPa SSW 7.0mph /  11.3km/h 8.0mph /  12.9km/h 51% 0.00in /  0mm
18:20 79.3 °F /  26.3 °C 60.1 °F /  15.6 °C 29.83in /  1010hPa SW 7.0mph /  11.3km/h 7.0mph /  11.3km/h 52% 0.00in /  0mm
18:25 78.7 °F /  25.9 °C 59.0 °F /  15 °C 29.83in /  1010hPa SSW 5.0mph /  8km/h 10.0mph /  16.1km/h 51% 0.00in /  0mm
18:30 78.1 °F /  25.6 °C 59.0 °F /  15 °C 29.83in /  1010hPa SW 6.0mph /  9.7km/h 11.0mph /  17.7km/h 52% 0.00in /  0mm
18:40 77.1 °F /  25.1 °C 58.6 °F /  14.8 °C 29.83in /  1010hPa SW 7.0mph /  11.3km/h 8.0mph /  12.9km/h 53% 0.00in /  0mm
18:45 76.5 °F /  24.7 °C 58.6 °F /  14.8 °C 29.83in /  1010hPa SW 4.0mph /  6.4km/h 8.0mph /  12.9km/h 54% 0.00in /  0mm
18:50 75.8 °F /  24.3 °C 58.5 °F /  14.7 °C 29.83in /  1010hPa SW 4.0mph /  6.4km/h 9.0mph /  14.5km/h 55% 0.00in /  0mm
18:55 75.4 °F /  24.1 °C 58.1 °F /  14.5 °C 29.83in /  1010hPa SW 4.0mph /  6.4km/h 9.0mph /  14.5km/h 55% 0.00in /  0mm
19:00 74.9 °F /  23.8 °C 58.1 °F /  14.5 °C 29.83in /  1010hPa WSW 5.0mph /  8km/h 8.0mph /  12.9km/h 56% 0.00in /  0mm
19:10 73.8 °F /  23.2 °C 58.1 °F /  14.5 °C 29.83in /  1010hPa SSW 4.0mph /  6.4km/h 8.0mph /  12.9km/h 58% 0.00in /  0mm
19:15 73.3 °F /  22.9 °C 57.6 °F /  14.2 °C 29.83in /  1010hPa SW 2.0mph /  3.2km/h 7.0mph /  11.3km/h 58% 0.00in /  0mm
19:20 73.0 °F /  22.8 °C 57.8 °F /  14.3 °C 29.83in /  1010hPa SW 3.0mph /  4.8km/h 7.0mph /  11.3km/h 59% 0.00in /  0mm
19:25 72.7 °F /  22.6 °C 58.0 °F /  14.4 °C 29.83in /  1010hPa SW 4.0mph /  6.4km/h 7.0mph /  11.3km/h 60% 0.00in /  0mm
19:30 72.5 °F /  22.5 °C 57.8 °F /  14.3 °C 29.83in /  1010hPa SW 3.0mph /  4.8km/h 7.0mph /  11.3km/h 60% 0.00in /  0mm
19:35 72.1 °F /  22.3 °C 57.9 °F /  14.4 °C 29.82in /  1009.7hPa SW 3.0mph /  4.8km/h 6.0mph /  9.7km/h 61% 0.00in /  0mm
19:40 71.6 °F /  22 °C 57.4 °F /  14.1 °C 29.82in /  1009.7hPa SSW 3.0mph /  4.8km/h 7.0mph /  11.3km/h 61% 0.00in /  0mm
19:45 71.2 °F /  21.8 °C 57.1 °F /  13.9 °C 29.82in /  1009.7hPa SW 3.0mph /  4.8km/h 7.0mph /  11.3km/h 61% 0.00in /  0mm
19:50 70.9 °F /  21.6 °C 57.7 °F /  14.3 °C 29.82in /  1009.7hPa SW 3.0mph /  4.8km/h 6.0mph /  9.7km/h 63% 0.00in /  0mm
19:55 70.6 °F /  21.4 °C 57.4 °F /  14.1 °C 29.82in /  1009.7hPa South 3.0mph /  4.8km/h 5.0mph /  8km/h 63% 0.00in /  0mm
20:00 70.3 °F /  21.3 °C 57.5 °F /  14.2 °C 29.81in /  1009.4hPa SSW 3.0mph /  4.8km/h 5.0mph /  8km/h 64% 0.00in /  0mm
20:05 70.1 °F /  21.2 °C 57.4 °F /  14.1 °C 29.82in /  1009.7hPa SSW 1.0mph /  1.6km/h 4.0mph /  6.4km/h 64% 0.00in /  0mm
20:10 69.9 °F /  21.1 °C 57.6 °F /  14.2 °C 29.81in /  1009.4hPa Calm   1.0mph /  1.6km/h 65% 0.00in /  0mm
20:15 69.6 °F /  20.9 °C 57.7 °F /  14.3 °C 29.81in /  1009.4hPa SW 2.0mph /  3.2km/h 3.0mph /  4.8km/h 66% 0.00in /  0mm
20:20 69.5 °F /  20.8 °C 57.6 °F /  14.2 °C 29.81in /  1009.4hPa Calm   2.0mph /  3.2km/h 66% 0.00in /  0mm
20:25 69.4 °F /  20.8 °C 57.5 °F /  14.2 °C 29.81in /  1009.4hPa Calm   2.0mph /  3.2km/h 66% 0.00in /  0mm
20:30 69.2 °F /  20.7 °C 57.8 °F /  14.3 °C 29.81in /  1009.4hPa Calm   1.0mph /  1.6km/h 67% 0.00in /  0mm
20:35 69.0 °F /  20.6 °C 57.6 °F /  14.2 °C 29.81in /  1009.4hPa Calm     67% 0.00in /  0mm
20:40 68.6 °F /  20.3 °C 57.2 °F /  14 °C 29.80in /  1009hPa Calm     67% 0.00in /  0mm
20:45 68.5 °F /  20.3 °C 57.5 °F /  14.2 °C 29.80in /  1009hPa Calm     68% 0.00in /  0mm
20:50 68.5 °F /  20.3 °C 57.5 °F /  14.2 °C 29.80in /  1009hPa Calm     68% 0.00in /  0mm
20:55 68.4 °F /  20.2 °C 57.4 °F /  14.1 °C 29.80in /  1009hPa Calm     68% 0.00in /  0mm
21:00 68.2 °F /  20.1 °C 57.6 °F /  14.2 °C 29.80in /  1009hPa Calm     69% 0.00in /  0mm
21:05 68.1 °F /  20.1 °C 57.5 °F /  14.2 °C 29.80in /  1009hPa Calm     69% 0.00in /  0mm
21:10 68.0 °F /  20 °C 57.4 °F /  14.1 °C 29.80in /  1009hPa Calm     69% 0.00in /  0mm
21:15 67.8 °F /  19.9 °C 57.3 °F /  14.1 °C 29.79in /  1008.7hPa Calm     69% 0.00in /  0mm
21:20 67.6 °F /  19.8 °C 57.5 °F /  14.2 °C 29.80in /  1009hPa Calm     70% 0.00in /  0mm
21:25 67.5 °F /  19.7 °C 57.8 °F /  14.3 °C 29.80in /  1009hPa Calm     71% 0.00in /  0mm
21:30 67.3 °F /  19.6 °C 57.6 °F /  14.2 °C 29.80in /  1009hPa Calm     71% 0.00in /  0mm
21:35 67.1 °F /  19.5 °C 57.4 °F /  14.1 °C 29.80in /  1009hPa Calm     71% 0.00in /  0mm
21:40 66.9 °F /  19.4 °C 57.6 °F /  14.2 °C 29.79in /  1008.7hPa Calm     72% 0.00in /  0mm
21:45 66.8 °F /  19.3 °C 57.5 °F /  14.2 °C 29.80in /  1009hPa Calm     72% 0.00in /  0mm
21:50 66.8 °F /  19.3 °C 57.9 °F /  14.4 °C 29.80in /  1009hPa Calm     73% 0.00in /  0mm
21:55 66.6 °F /  19.2 °C 57.7 °F /  14.3 °C 29.80in /  1009hPa Calm     73% 0.00in /  0mm
22:00 66.5 °F /  19.2 °C 58.0 °F /  14.4 °C 29.80in /  1009hPa Calm     74% 0.00in /  0mm
22:05 66.3 °F /  19.1 °C 57.8 °F /  14.3 °C 29.80in /  1009hPa Calm     74% 0.00in /  0mm
22:10 66.2 °F /  19 °C 57.7 °F /  14.3 °C 29.80in /  1009hPa Calm     74% 0.00in /  0mm
22:15 66.2 °F /  19 °C 58.0 °F /  14.4 °C 29.79in /  1008.7hPa Calm     75% 0.00in /  0mm
22:20 66.3 °F /  19.1 °C 58.1 °F /  14.5 °C 29.80in /  1009hPa Calm     75% 0.00in /  0mm
22:25 66.4 °F /  19.1 °C 58.2 °F /  14.6 °C 29.79in /  1008.7hPa Calm     75% 0.00in /  0mm
22:30 66.7 °F /  19.3 °C 58.5 °F /  14.7 °C 29.80in /  1009hPa Calm     75% 0.00in /  0mm
22:35 67.2 °F /  19.6 °C 58.6 °F /  14.8 °C 29.79in /  1008.7hPa Calm     74% 0.00in /  0mm
22:40 68.0 °F /  20 °C 59.0 °F /  15 °C 29.80in /  1009hPa Calm   2.0mph /  3.2km/h 73% 0.00in /  0mm
22:45 68.6 °F /  20.3 °C 59.2 °F /  15.1 °C 29.79in /  1008.7hPa South 1.0mph /  1.6km/h 3.0mph /  4.8km/h 72% 0.00in /  0mm
22:50 69.2 °F /  20.7 °C 59.4 °F /  15.2 °C 29.79in /  1008.7hPa SSW 1.0mph /  1.6km/h 3.0mph /  4.8km/h 71% 0.00in /  0mm
22:55 69.8 °F /  21 °C 59.6 °F /  15.3 °C 29.79in /  1008.7hPa SSW 1.0mph /  1.6km/h 4.0mph /  6.4km/h 70% 0.00in /  0mm
23:00 70.3 °F /  21.3 °C 59.6 °F /  15.3 °C 29.79in /  1008.7hPa SSW 3.0mph /  4.8km/h 6.0mph /  9.7km/h 69% 0.00in /  0mm
23:05 71.0 °F /  21.7 °C 59.9 °F /  15.5 °C 29.79in /  1008.7hPa SSW 1.0mph /  1.6km/h 5.0mph /  8km/h 68% 0.00in /  0mm
23:10 71.7 °F /  22.1 °C 60.2 °F /  15.7 °C 29.79in /  1008.7hPa SSW 1.0mph /  1.6km/h 5.0mph /  8km/h 67% 0.00in /  0mm
23:15 72.2 °F /  22.3 °C 59.8 °F /  15.4 °C 29.78in /  1008.4hPa SSW 2.0mph /  3.2km/h 6.0mph /  9.7km/h 65% 0.00in /  0mm
23:20 72.5 °F /  22.5 °C 60.1 °F /  15.6 °C 29.78in /  1008.4hPa SSW 2.0mph /  3.2km/h 6.0mph /  9.7km/h 65% 0.00in /  0mm
23:25 72.9 °F /  22.7 °C 59.6 °F /  15.3 °C 29.79in /  1008.7hPa SSW 3.0mph /  4.8km/h 6.0mph /  9.7km/h 63% 0.00in /  0mm
23:30 73.4 °F /  23 °C 59.6 °F /  15.3 °C 29.79in /  1008.7hPa SSW 3.0mph /  4.8km/h 7.0mph /  11.3km/h 62% 0.00in /  0mm
23:35 73.7 °F /  23.2 °C 59.9 °F /  15.5 °C 29.79in /  1008.7hPa SSW 3.0mph /  4.8km/h 7.0mph /  11.3km/h 62% 0.00in /  0mm
23:40 74.1 °F /  23.4 °C 59.8 °F /  15.4 °C 29.79in /  1008.7hPa SSW 3.0mph /  4.8km/h 6.0mph /  9.7km/h 61% 0.00in /  0mm
23:45 74.3 °F /  23.5 °C 60.0 °F /  15.6 °C 29.79in /  1008.7hPa Calm   5.0mph /  8km/h 61% 0.00in /  0mm
23:50 74.4 °F /  23.6 °C 59.6 °F /  15.3 °C 29.79in /  1008.7hPa SSW 3.0mph /  4.8km/h 9.0mph /  14.5km/h 60% 0.00in /  0mm
23:55 74.6 °F /  23.7 °C 59.8 °F /  15.4 °C 29.79in /  1008.7hPa SW 3.0mph /  4.8km/h 9.0mph /  14.5km/h 60% 0.00in /  0mm
Buffalo, New York, USA
Compliments of Weather Underground - 2.5 mb